Time;durP1;ratioP1;P1;durP2;ratioP2;P2;SDS_P1;SDS_P2;PMS_P1;PMS_P2;Temp;Humidity;BMP_temperature;BMP_pressure;BME280_temperature;BME280_humidity;BME280_pressure;Samples;Min_cycle;Max_cycle;Signal;HPM_P1;HPM_P2
2022/10/04 00:00:52;;;;;;;3.5;2.2;;;;;;;;;;;;;
2022/10/04 00:03:17;;;;;;;2.3;1.9;;;;;;;;;;;;;
2022/10/04 00:05:42;;;;;;;2.2;1.9;;;;;;;;;;;;;
2022/10/04 00:08:07;;;;;;;3.4;2;;;;;;;;;;;;;
2022/10/04 00:10:32;;;;;;;2.3;2.1;;;;;;;;;;;;;
2022/10/04 00:12:58;;;;;;;4.6;2.1;;;;;;;;;;;;;
2022/10/04 00:15:24;;;;;;;2.6;2.1;;;;;;;;;;;;;
2022/10/04 00:17:49;;;;;;;3.1;2.1;;;;;;;;;;;;;
2022/10/04 00:20:17;;;;;;;2.4;2.2;;;;;;;;;;;;;
2022/10/04 00:22:42;;;;;;;2.5;2.3;;;;;;;;;;;;;
2022/10/04 00:25:07;;;;;;;2.9;2;;;;;;;;;;;;;
2022/10/04 00:27:33;;;;;;;4.1;2.3;;;;;;;;;;;;;
2022/10/04 00:29:58;;;;;;;3.6;2;;;;;;;;;;;;;
2022/10/04 00:32:23;;;;;;;2.4;1.9;;;;;;;;;;;;;
2022/10/04 00:34:48;;;;;;;2.5;2.2;;;;;;;;;;;;;
2022/10/04 00:37:13;;;;;;;2.2;1.7;;;;;;;;;;;;;
2022/10/04 00:39:38;;;;;;;1.9;1.7;;;;;;;;;;;;;
2022/10/04 00:42:04;;;;;;;1.8;1.6;;;;;;;;;;;;;
2022/10/04 00:44:28;;;;;;;1.8;1.4;;;;;;;;;;;;;
2022/10/04 00:46:53;;;;;;;2.2;1.5;;;;;;;;;;;;;
2022/10/04 00:49:18;;;;;;;1.8;1.5;;;;;;;;;;;;;
2022/10/04 00:51:43;;;;;;;2.4;1.7;;;;;;;;;;;;;
2022/10/04 00:54:09;;;;;;;2;1.5;;;;;;;;;;;;;
2022/10/04 00:56:35;;;;;;;1.9;1.5;;;;;;;;;;;;;
2022/10/04 00:59:01;;;;;;;5.4;2;;;;;;;;;;;;;
2022/10/04 01:01:25;;;;;;;2;1.6;;;;;;;;;;;;;
2022/10/04 01:03:50;;;;;;;3.5;1.6;;;;;;;;;;;;;
2022/10/04 01:06:15;;;;;;;2.3;1.6;;;;;;;;;;;;;
2022/10/04 01:08:41;;;;;;;2.9;1.5;;;;;;;;;;;;;
2022/10/04 01:11:06;;;;;;;1.9;1.6;;;;;;;;;;;;;
2022/10/04 01:13:31;;;;;;;2.1;1.7;;;;;;;;;;;;;
2022/10/04 01:15:59;;;;;;;3.4;1.7;;;;;;;;;;;;;
2022/10/04 01:18:24;;;;;;;2.8;1.9;;;;;;;;;;;;;
2022/10/04 01:20:49;;;;;;;3.2;1.8;;;;;;;;;;;;;
2022/10/04 01:23:14;;;;;;;3.6;2.1;;;;;;;;;;;;;
2022/10/04 01:25:39;;;;;;;2.2;1.9;;;;;;;;;;;;;
2022/10/04 01:28:04;;;;;;;2.7;1.8;;;;;;;;;;;;;
2022/10/04 01:30:30;;;;;;;2.7;1.9;;;;;;;;;;;;;
2022/10/04 01:32:55;;;;;;;2.9;2.1;;;;;;;;;;;;;
2022/10/04 01:35:20;;;;;;;2.1;1.9;;;;;;;;;;;;;
2022/10/04 01:37:45;;;;;;;3.4;2.2;;;;;;;;;;;;;
2022/10/04 01:40:16;;;;;;;2.3;2.1;;;;;;;;;;;;;
2022/10/04 01:42:41;;;;;;;2.9;2;;;;;;;;;;;;;
2022/10/04 01:45:06;;;;;;;2.5;2.1;;;;;;;;;;;;;
2022/10/04 01:47:31;;;;;;;3.3;2.1;;;;;;;;;;;;;
2022/10/04 01:49:58;;;;;;;3.6;2.2;;;;;;;;;;;;;
2022/10/04 01:52:22;;;;;;;4.4;2.7;;;;;;;;;;;;;
2022/10/04 01:54:47;;;;;;;3;2.4;;;;;;;;;;;;;
2022/10/04 01:57:13;;;;;;;2.2;2;;;;;;;;;;;;;
2022/10/04 01:59:38;;;;;;;3.5;2.1;;;;;;;;;;;;;
2022/10/04 02:02:03;;;;;;;4.1;2;;;;;;;;;;;;;
2022/10/04 02:04:28;;;;;;;2.8;1.8;;;;;;;;;;;;;
2022/10/04 02:06:53;;;;;;;2;1.8;;;;;;;;;;;;;
2022/10/04 02:09:19;;;;;;;2.7;1.8;;;;;;;;;;;;;
2022/10/04 02:11:44;;;;;;;1.9;1.7;;;;;;;;;;;;;
2022/10/04 02:14:11;;;;;;;2.4;1.8;;;;;;;;;;;;;
2022/10/04 02:16:36;;;;;;;1.8;1.6;;;;;;;;;;;;;
2022/10/04 02:19:04;;;;;;;3.6;2;;;;;;;;;;;;;
2022/10/04 02:21:40;;;;;;;2.7;2.3;;;;;;;;;;;;;
2022/10/04 02:24:04;;;;;;;3.8;2.6;;;;;;;;;;;;;
2022/10/04 02:26:29;;;;;;;3.5;2.3;;;;;;;;;;;;;
2022/10/04 02:28:54;;;;;;;5.8;3.8;;;;;;;;;;;;;
2022/10/04 02:33:45;;;;;;;4.5;3.1;;;;;;;;;;;;;
2022/10/04 02:36:12;;;;;;;3.9;2.6;;;;;;;;;;;;;
2022/10/04 02:38:36;;;;;;;4.2;3.5;;;;;;;;;;;;;
2022/10/04 02:41:03;;;;;;;5.3;4.3;;;;;;;;;;;;;
2022/10/04 02:43:27;;;;;;;6;4.4;;;;;;;;;;;;;
2022/10/04 02:45:52;;;;;;;5;4.2;;;;;;;;;;;;;
2022/10/04 02:48:18;;;;;;;5.2;4.5;;;;;;;;;;;;;
2022/10/04 02:50:43;;;;;;;6;5;;;;;;;;;;;;;
2022/10/04 02:53:08;;;;;;;6;4.5;;;;;;;;;;;;;
2022/10/04 02:55:33;;;;;;;5.6;4.6;;;;;;;;;;;;;
2022/10/04 02:57:58;;;;;;;5.9;4.5;;;;;;;;;;;;;
2022/10/04 03:00:23;;;;;;;4.5;4;;;;;;;;;;;;;
2022/10/04 03:02:48;;;;;;;5.2;4.3;;;;;;;;;;;;;
2022/10/04 03:05:13;;;;;;;4.5;4.1;;;;;;;;;;;;;
2022/10/04 03:07:39;;;;;;;5.1;4.3;;;;;;;;;;;;;
2022/10/04 03:10:04;;;;;;;4.7;3.8;;;;;;;;;;;;;
2022/10/04 03:12:31;;;;;;;5;3.7;;;;;;;;;;;;;
2022/10/04 03:14:56;;;;;;;4.9;3.8;;;;;;;;;;;;;
2022/10/04 03:17:21;;;;;;;4.7;3.7;;;;;;;;;;;;;
2022/10/04 03:19:46;;;;;;;4.6;4.1;;;;;;;;;;;;;
2022/10/04 03:22:11;;;;;;;6;4.5;;;;;;;;;;;;;
2022/10/04 03:24:36;;;;;;;5.7;4.4;;;;;;;;;;;;;
2022/10/04 03:27:03;;;;;;;5.5;4.2;;;;;;;;;;;;;
2022/10/04 03:29:29;;;;;;;5.1;4.5;;;;;;;;;;;;;
2022/10/04 03:31:57;;;;;;;4.8;3.9;;;;;;;;;;;;;
2022/10/04 03:34:21;;;;;;;5.9;4.2;;;;;;;;;;;;;
2022/10/04 03:36:46;;;;;;;7.9;4.2;;;;;;;;;;;;;
2022/10/04 03:39:11;;;;;;;6.4;4.1;;;;;;;;;;;;;
2022/10/04 03:41:38;;;;;;;4.9;4;;;;;;;;;;;;;
2022/10/04 03:44:03;;;;;;;5.6;3.9;;;;;;;;;;;;;
2022/10/04 03:46:28;;;;;;;4.3;3.9;;;;;;;;;;;;;
2022/10/04 03:48:53;;;;;;;4.5;3.9;;;;;;;;;;;;;
2022/10/04 03:51:20;;;;;;;4.8;3.2;;;;;;;;;;;;;
2022/10/04 03:53:44;;;;;;;13.7;8.9;;;;;;;;;;;;;
2022/10/04 03:56:12;;;;;;;7.5;4.8;;;;;;;;;;;;;
2022/10/04 03:58:37;;;;;;;5.1;3.7;;;;;;;;;;;;;
2022/10/04 04:02:35;;;;;;;3.5;3.1;;;;;;;9.16;97.20801;943.5769;;;;
2022/10/04 04:05:00;;;;;;;4.7;3.3;;;;;;;9.21;96.68555;943.5801;;;;
2022/10/04 04:07:53;;;;;;;4.3;3;;;;;;;9.12;96.58496;943.5467;;;;
2022/10/04 04:10:17;;;;;;;3.2;2.9;;;;;;;8.98;96.93945;943.4994;;;;
2022/10/04 04:12:46;;;;;;;3.1;2.8;;;;;;;8.9;96.8877;943.5928;;;;
2022/10/04 04:15:17;;;;;;;3.9;2.9;;;;;;;8.77;97.3457;943.5511;;;;
2022/10/04 04:17:43;;;;;;;4.8;3.1;;;;;;;8.64;97.93066;943.5153;;;;
2022/10/04 04:20:08;;;;;;;3.4;3.1;;;;;;;8.55;98.58105;943.4423;;;;
2022/10/04 04:22:33;;;;;;;4.1;2.9;;;;;;;8.46;98.71973;943.4764;;;;
2022/10/04 04:25:01;;;;;;;3.2;2.7;;;;;;;8.45;98.62695;943.4445;;;;
2022/10/04 04:27:35;;;;;;;4.7;2.7;;;;;;;8.54;97.99023;943.4048;;;;
2022/10/04 04:33:34;;;;;;;3.1;2.8;;;;;;;8.67;97.2002;943.4853;;;;
2022/10/04 04:39:39;;;;;;;3.5;2.9;;;;;;;8.66;96.91211;943.5326;;;;
2022/10/04 04:42:09;;;;;;;6;3.7;;;;;;;8.48;97.69141;943.4763;;;;
2022/10/04 04:44:36;;;;;;;5.8;4.1;;;;;;;8.49;97.89844;943.4877;;;;
2022/10/04 04:47:58;;;;;;;4.2;3;;;;;;;8.48;97.57813;943.504;;;;
2022/10/04 04:50:23;;;;;;;4;2.8;;;;;;;8.38;97.39453;943.5709;;;;
2022/10/04 04:52:49;;;;;;;3.3;2.7;;;;;;;8.33;97.10254;943.509;;;;
2022/10/04 04:55:13;;;;;;;3.7;2.7;;;;;;;8.22;97.40527;943.4998;;;;
2022/10/04 04:57:43;;;;;;;3.3;2.9;;;;;;;8.27;97.26758;943.4677;;;;
2022/10/04 05:00:08;;;;;;;6;3;;;;;;;8.16;97.01563;943.4977;;;;
2022/10/04 05:02:35;;;;;;;3.9;3.2;;;;;;;7.88;98.41895;943.5011;;;;
2022/10/04 05:05:00;;;;;;;3.9;3.5;;;;;;;7.74;99.38184;943.4984;;;;
2022/10/04 05:07:28;;;;;;;4.2;3.5;;;;;;;7.87;99.66309;943.4905;;;;
2022/10/04 05:13:33;;;;;;;6;4.3;;;;;;;8.01;98.45898;943.5223;;;;
2022/10/04 05:15:58;;;;;;;5.1;3.7;;;;;;;8.02;97.9707;943.4885;;;;
2022/10/04 05:18:29;;;;;;;4.4;3.1;;;;;;;7.92;97.92773;943.4983;;;;
2022/10/04 05:20:53;;;;;;;3.9;3.1;;;;;;;7.84;97.60059;943.5276;;;;
2022/10/04 05:23:18;;;;;;;4;3;;;;;;;7.69;97.93066;943.463;;;;
2022/10/04 05:26:11;;;;;;;4;3.2;;;;;;;7.66;98.54688;943.4366;;;;
2022/10/04 05:28:36;;;;;;;4.3;3.3;;;;;;;7.85;97.51367;943.4819;;;;
2022/10/04 05:31:01;;;;;;;6.5;4.4;;;;;;;7.82;97.43945;943.459;;;;
2022/10/04 05:33:28;;;;;;;5.2;3.5;;;;;;;7.91;97.00391;943.4725;;;;
2022/10/04 05:35:55;;;;;;;3.9;3.4;;;;;;;8.04;95.96777;943.498;;;;
2022/10/04 05:38:20;;;;;;;3.7;3.1;;;;;;;8.05;95.28906;943.5758;;;;
2022/10/04 05:40:50;;;;;;;5.5;3.2;;;;;;;8.03;95.10352;943.5903;;;;
2022/10/04 05:43:15;;;;;;;3.9;2.4;;;;;;;7.92;94.71387;943.5687;;;;
2022/10/04 05:45:43;;;;;;;4.3;3;;;;;;;7.88;95.72949;943.5542;;;;
2022/10/04 05:48:13;;;;;;;4.6;3.4;;;;;;;8.02;95.23535;943.509;;;;
2022/10/04 05:50:39;;;;;;;10.1;5.8;;;;;;;8;94.4707;943.5645;;;;
2022/10/04 05:53:04;;;;;;;9.1;6.3;;;;;;;8.13;94.70508;943.5645;;;;
2022/10/04 05:56:29;;;;;;;3.8;3.3;;;;;;;8.22;94.20215;943.5657;;;;
2022/10/04 05:58:54;;;;;;;3.5;2.2;;;;;;;8.7;94;943.5583;;;;
2022/10/04 06:01:23;;;;;;;4.1;2;;;;;;;9.1;90.24219;943.5502;;;;
2022/10/04 06:03:52;;;;;;;2.3;1.9;;;;;;;9.54;87.16699;943.5287;;;;
2022/10/04 06:06:35;;;;;;;2.7;1.9;;;;;;;10.04;86.05957;943.6021;;;;
2022/10/04 06:09:00;;;;;;;2.3;1.8;;;;;;;10.61;81.39844;943.5912;;;;
2022/10/04 06:14:19;;;;;;;1.8;1.6;;;;;;;11.19;77.74609;943.6234;;;;
2022/10/04 06:16:46;;;;;;;7;4.1;;;;;;;11.31;77.66309;943.5999;;;;
2022/10/04 06:19:11;;;;;;;7.7;5.1;;;;;;;11.04;80.29102;943.6729;;;;
2022/10/04 06:21:37;;;;;;;7.3;4.6;;;;;;;10.99;81.07129;943.6191;;;;
2022/10/04 06:24:03;;;;;;;4.2;3.1;;;;;;;11.22;80.02734;943.6273;;;;
2022/10/04 06:26:33;;;;;;;3;2.5;;;;;;;11.17;79.61621;943.5881;;;;
2022/10/04 06:29:01;;;;;;;3.1;2.3;;;;;;;11.34;78.98438;943.5327;;;;
2022/10/04 06:31:27;;;;;;;2.5;1.7;;;;;;;11.27;78.81348;943.4495;;;;
2022/10/04 06:33:58;;;;;;;3.1;2.1;;;;;;;11.48;79.16016;943.4849;;;;
2022/10/04 06:36:23;;;;;;;4;3.7;;;;;;;11.02;80.48145;943.4031;;;;
2022/10/04 06:38:54;;;;;;;3.6;2.4;;;;;;;11.11;80.66992;943.4157;;;;
2022/10/04 06:41:19;;;;;;;3.9;2.4;;;;;;;11.2;81.40527;943.3676;;;;
2022/10/04 06:43:44;;;;;;;4.1;2.1;;;;;;;11.52;79.83203;943.3777;;;;
2022/10/04 06:46:10;;;;;;;2.2;1.7;;;;;;;11.5;78.68262;943.4149;;;;
2022/10/04 06:48:35;;;;;;;1.8;1.6;;;;;;;11.64;77.59668;943.3549;;;;
2022/10/04 06:51:00;;;;;;;3.1;1.9;;;;;;;11.79;78.22949;943.3914;;;;
2022/10/04 06:53:27;;;;;;;2.7;1.8;;;;;;;11.86;77.72852;943.3599;;;;
2022/10/04 06:55:55;;;;;;;2.7;1.9;;;;;;;12.1;77.29004;943.3958;;;;
2022/10/04 06:58:19;;;;;;;1.4;1.3;;;;;;;12.27;74.27051;943.4037;;;;
2022/10/04 07:00:47;;;;;;;5;2.2;;;;;;;12.38;74.50879;943.4647;;;;
2022/10/04 07:03:12;;;;;;;1.4;1.3;;;;;;;11.59;75.89453;943.4489;;;;
2022/10/04 07:05:37;;;;;;;1.7;1.4;;;;;;;12.19;75.32422;943.4744;;;;
2022/10/04 07:08:08;;;;;;;1.5;1.3;;;;;;;11.89;73.66797;943.4328;;;;
2022/10/04 07:10:33;;;;;;;1.2;1.1;;;;;;;12.15;73.00195;943.3884;;;;
2022/10/04 07:13:01;;;;;;;1.5;1.1;;;;;;;12.07;74.39746;943.3875;;;;
2022/10/04 07:15:27;;;;;;;1.4;1.3;;;;;;;12.33;73.49219;943.5073;;;;
2022/10/04 07:17:52;;;;;;;1.2;1.1;;;;;;;12.08;73.08105;943.4969;;;;
2022/10/04 07:20:17;;;;;;;1.6;1.4;;;;;;;12.28;73.37988;943.5148;;;;
2022/10/04 07:22:42;;;;;;;1.4;1.2;;;;;;;12.74;72.58398;943.608;;;;
2022/10/04 07:25:07;;;;;;;1.3;1.2;;;;;;;12.57;71.11133;943.7026;;;;
2022/10/04 07:27:32;;;;;;;1.3;1.2;;;;;;;12.5;72.09766;943.7219;;;;
2022/10/04 07:30:00;;;;;;;3.6;1.6;;;;;;;12.82;70.98047;943.7729;;;;
2022/10/04 07:32:25;;;;;;;1.9;1.2;;;;;;;13.12;70.57031;943.8647;;;;
2022/10/04 07:34:50;;;;;;;1.6;1.2;;;;;;;12.81;71.35645;943.7622;;;;
2022/10/04 07:37:17;;;;;;;1.3;1.2;;;;;;;13.11;70.49805;943.7422;;;;
2022/10/04 07:39:42;;;;;;;1.1;1;;;;;;;13.19;70.4541;943.7784;;;;
2022/10/04 07:42:09;;;;;;;1.3;1.1;;;;;;;13.34;70.06445;943.7342;;;;
2022/10/04 07:44:38;;;;;;;2.4;1.4;;;;;;;13.13;70.27246;943.6577;;;;
2022/10/04 07:47:03;;;;;;;1.3;1.1;;;;;;;13.51;69.06934;943.6278;;;;
2022/10/04 07:49:30;;;;;;;1.2;0.9;;;;;;;13.22;69.73535;943.5566;;;;
2022/10/04 07:51:53;;;;;;;1.2;1.1;;;;;;;13.71;69.18164;943.4741;;;;
2022/10/04 07:54:20;;;;;;;1.4;1.2;;;;;;;14.28;68.02832;943.4608;;;;
2022/10/04 07:56:44;;;;;;;2.4;1.4;;;;;;;14.51;65.78125;943.4444;;;;
2022/10/04 07:59:12;;;;;;;1.7;1.4;;;;;;;14.62;67.20508;943.4786;;;;
2022/10/04 08:01:37;;;;;;;1.8;1;;;;;;;14.79;65.40918;943.4308;;;;
2022/10/04 08:04:04;;;;;;;0.9;0.9;;;;;;;14.38;63.05566;943.4963;;;;
2022/10/04 08:06:33;;;;;;;1.3;0.9;;;;;;;14.69;62.375;943.5765;;;;
2022/10/04 08:08:58;;;;;;;1.1;1;;;;;;;14.76;61.08105;943.4765;;;;
2022/10/04 08:11:23;;;;;;;1.7;0.9;;;;;;;14.78;61.94824;943.4758;;;;
2022/10/04 08:13:49;;;;;;;0.7;0.7;;;;;;;14.94;61.20996;943.4594;;;;
2022/10/04 08:16:15;;;;;;;1.1;1;;;;;;;14.66;62.50781;943.4202;;;;
2022/10/04 08:18:42;;;;;;;1.7;1.2;;;;;;;15.24;64.19629;943.4802;;;;
2022/10/04 08:21:06;;;;;;;1.1;0.8;;;;;;;15.7;59.74609;943.4621;;;;
2022/10/04 08:23:32;;;;;;;1;0.9;;;;;;;15.99;60.9873;943.4416;;;;
2022/10/04 08:26:00;;;;;;;1.2;1.1;;;;;;;16.15;60.25781;943.3674;;;;
2022/10/04 08:30:51;;;;;;;1.3;1;;;;;;;15.31;61.72363;943.3622;;;;
2022/10/04 08:33:18;;;;;;;1.3;1.1;;;;;;;14.67;63.08594;943.3785;;;;
2022/10/04 08:35:43;;;;;;;1.2;0.9;;;;;;;14.5;64.7793;943.3714;;;;
2022/10/04 08:38:12;;;;;;;1.3;1;;;;;;;14.98;61.79199;943.3463;;;;
2022/10/04 08:40:38;;;;;;;1.8;1.1;;;;;;;15.5;61.95898;943.4329;;;;
2022/10/04 08:43:16;;;;;;;1.3;0.9;;;;;;;15.64;61.59766;943.3836;;;;
2022/10/04 08:45:42;;;;;;;2.7;1.1;;;;;;;16.04;60.01172;943.351;;;;
2022/10/04 08:48:07;;;;;;;1.9;1.2;;;;;;;16.04;59.52637;943.4144;;;;
2022/10/04 08:50:34;;;;;;;2.2;1.1;;;;;;;15.42;58.21777;943.3452;;;;
2022/10/04 08:53:01;;;;;;;1.5;1;;;;;;;15.88;59.49219;943.3656;;;;
2022/10/04 08:55:26;;;;;;;2.9;1.2;;;;;;;16.1;57.91602;943.337;;;;
2022/10/04 08:57:52;;;;;;;0.8;0.8;;;;;;;16.06;57.9209;943.4127;;;;
2022/10/04 09:00:17;;;;;;;1.7;0.9;;;;;;;16.45;56.44531;943.4526;;;;
2022/10/04 09:02:47;;;;;;;1.6;0.8;;;;;;;16.68;56.82129;943.4489;;;;
2022/10/04 09:05:16;;;;;;;1.2;1.1;;;;;;;16.75;57.05078;943.5506;;;;
2022/10/04 09:07:41;;;;;;;2.1;1.2;;;;;;;17.09;56.88672;943.5981;;;;
2022/10/04 09:10:07;;;;;;;2;1.1;;;;;;;17;56.72461;943.5903;;;;
2022/10/04 09:12:31;;;;;;;1.4;1;;;;;;;17.4;56.01172;943.5129;;;;
2022/10/04 09:14:57;;;;;;;3.5;1.2;;;;;;;17.46;55.10156;943.5281;;;;
2022/10/04 09:17:22;;;;;;;1.3;0.8;;;;;;;17.47;55.95117;943.5031;;;;
2022/10/04 09:19:47;;;;;;;2.9;0.9;;;;;;;17.88;54.53809;943.509;;;;
2022/10/04 09:22:13;;;;;;;1.2;1.1;;;;;;;17.86;54.19922;943.4972;;;;
2022/10/04 09:24:42;;;;;;;0.8;0.8;;;;;;;17.37;54.4873;943.4891;;;;
2022/10/04 09:27:05;;;;;;;1.2;0.8;;;;;;;17.36;52.25977;943.4956;;;;
2022/10/04 09:29:30;;;;;;;1.1;1;;;;;;;17.88;53.1582;943.4824;;;;
2022/10/04 09:31:56;;;;;;;0.8;0.8;;;;;;;17.74;53.0127;943.4578;;;;
2022/10/04 09:34:22;;;;;;;1.5;0.9;;;;;;;17.88;53.30859;943.5002;;;;
2022/10/04 09:36:53;;;;;;;1.1;0.9;;;;;;;18.07;52.41406;943.5201;;;;
2022/10/04 09:39:19;;;;;;;1.2;1.1;;;;;;;17.64;52.93066;943.5317;;;;
2022/10/04 09:41:46;;;;;;;1;1;;;;;;;17.68;58.2627;943.4938;;;;
2022/10/04 09:44:11;;;;;;;1.4;1;;;;;;;17.73;54.60156;943.5303;;;;
2022/10/04 09:46:36;;;;;;;1.5;1.1;;;;;;;17.58;53.64355;943.5061;;;;
2022/10/04 09:49:01;;;;;;;2.2;0.8;;;;;;;17.99;54.29785;943.4473;;;;
2022/10/04 09:51:26;;;;;;;1.3;1;;;;;;;17.61;53.05566;943.5268;;;;
2022/10/04 09:53:51;;;;;;;0.8;0.8;;;;;;;17.88;52.40234;943.5139;;;;
2022/10/04 09:56:17;;;;;;;1.3;1;;;;;;;18.16;52.85352;943.4838;;;;
2022/10/04 09:58:44;;;;;;;0.9;0.8;;;;;;;18.04;51.92188;943.4963;;;;
2022/10/04 10:01:07;;;;;;;1.1;1;;;;;;;18.29;52.39258;943.4889;;;;
2022/10/04 10:03:32;;;;;;;1.8;0.8;;;;;;;18.42;51.08301;943.3583;;;;
2022/10/04 10:05:57;;;;;;;1.5;0.9;;;;;;;18.33;51.57324;943.4553;;;;
2022/10/04 10:14:01;;;;;;;1.4;0.7;;;;;;;17.95;54.10645;943.4437;;;;
2022/10/04 10:16:28;;;;;;;1.2;1.1;;;;;;;18.08;55.60938;943.4297;;;;
2022/10/04 10:18:54;;;;;;;1.6;0.8;;;;;;;18.24;53.36328;943.4517;;;;
2022/10/04 10:21:19;;;;;;;2.5;1;;;;;;;18.5;51.91797;943.3962;;;;
2022/10/04 10:23:44;;;;;;;0.8;0.8;;;;;;;18.71;50.48828;943.3731;;;;
2022/10/04 10:26:09;;;;;;;1;0.8;;;;;;;18.75;50.67969;943.342;;;;
2022/10/04 10:28:34;;;;;;;0.8;0.8;;;;;;;18.79;51.90625;943.3994;;;;
2022/10/04 10:31:02;;;;;;;1.6;1;;;;;;;18.49;52.91602;943.3683;;;;
2022/10/04 10:33:24;;;;;;;1;0.7;;;;;;;18.76;52.2627;943.3967;;;;
2022/10/04 10:36:21;;;;;;;2.7;0.9;;;;;;;19.1;52.05859;943.3674;;;;
2022/10/04 10:38:47;;;;;;;2.4;1;;;;;;;19.12;50.65234;943.342;;;;
2022/10/04 10:41:11;;;;;;;1.1;0.9;;;;;;;19.23;50.6543;943.3058;;;;
2022/10/04 10:44:12;;;;;;;1.1;0.9;;;;;;;18.95;49.99121;943.3345;;;;
2022/10/04 10:46:37;;;;;;;2.1;1.1;;;;;;;19.17;49.81934;943.2717;;;;
2022/10/04 10:51:54;;;;;;;1.8;1.1;;;;;;;19.38;48.91113;943.2501;;;;
2022/10/04 10:54:17;;;;;;;2.3;0.9;;;;;;;19.48;49.58691;943.2712;;;;
2022/10/04 10:56:42;;;;;;;1.6;1;;;;;;;19.47;49.12012;943.2109;;;;
2022/10/04 10:59:07;;;;;;;2;1.4;;;;;;;19.3;52.08301;943.2457;;;;
2022/10/04 11:01:32;;;;;;;1.3;1.1;;;;;;;19.4;51.39551;943.1908;;;;
2022/10/04 11:04:02;;;;;;;2.7;1.4;;;;;;;19.43;51.46875;943.2479;;;;
2022/10/04 11:06:28;;;;;;;2.5;1.2;;;;;;;19.41;50.54688;943.2536;;;;
2022/10/04 11:08:55;;;;;;;1.9;1.1;;;;;;;19.11;52.30469;943.2411;;;;
2022/10/04 11:11:20;;;;;;;1.4;1.2;;;;;;;19.02;52.74805;943.2191;;;;
2022/10/04 11:13:47;;;;;;;2.8;1.2;;;;;;;19.34;53.04297;943.1926;;;;
2022/10/04 11:16:11;;;;;;;1.2;1;;;;;;;19.87;50.26074;943.1287;;;;
2022/10/04 11:18:35;;;;;;;1.4;0.9;;;;;;;20.69;48.43652;943.1478;;;;
2022/10/04 11:21:31;;;;;;;2;1.1;;;;;;;20.99;47.94336;943.1631;;;;
2022/10/04 11:23:55;;;;;;;1.7;1.1;;;;;;;20.78;50.04883;943.1295;;;;
2022/10/04 11:26:20;;;;;;;2.4;1;;;;;;;20.74;47.54297;943.0598;;;;
2022/10/04 11:28:45;;;;;;;1.7;1.2;;;;;;;20.87;48.27051;943.0906;;;;
2022/10/04 11:31:11;;;;;;;1.5;1;;;;;;;20.62;49.67969;943.0381;;;;
2022/10/04 11:33:54;;;;;;;1.2;1.1;;;;;;;20.6;48.58984;942.9641;;;;
2022/10/04 11:36:14;;;;;;;1.3;0.9;;;;;;;20.74;46.29297;943.017;;;;
2022/10/04 11:38:47;;;;;;;1.4;0.9;;;;;;;21.19;46.62012;942.9814;;;;
2022/10/04 11:41:09;;;;;;;1.5;1;;;;;;;21.98;46.16309;943.0056;;;;
2022/10/04 11:43:35;;;;;;;1.4;0.9;;;;;;;22.48;46.13379;942.9799;;;;
2022/10/04 11:46:03;;;;;;;2.2;1.1;;;;;;;23.13;43.38184;942.9402;;;;
2022/10/04 11:48:28;;;;;;;2.5;1.2;;;;;;;22.99;43.83691;943.0142;;;;
2022/10/04 11:50:59;;;;;;;3.7;1;;;;;;;22.86;42.93262;943.0083;;;;
2022/10/04 11:53:24;;;;;;;4;1.2;;;;;;;22.72;42.71973;942.9916;;;;
2022/10/04 11:55:53;;;;;;;2.2;1;;;;;;;22.22;46.23633;942.9113;;;;
2022/10/04 11:58:15;;;;;;;0.9;0.8;;;;;;;22.44;45.15527;942.9454;;;;
2022/10/04 12:00:41;;;;;;;1.5;1.1;;;;;;;22.9;42.70117;942.9228;;;;
2022/10/04 12:03:15;;;;;;;1.6;0.9;;;;;;;22.99;43.25098;942.867;;;;
2022/10/04 12:05:40;;;;;;;1.1;0.8;;;;;;;23.62;40.39355;942.8495;;;;
2022/10/04 12:08:05;;;;;;;2.4;0.9;;;;;;;23.87;40.31055;942.814;;;;
2022/10/04 12:10:33;;;;;;;1;0.9;;;;;;;24.56;37.52148;942.8242;;;;
2022/10/04 12:12:58;;;;;;;1.6;0.9;;;;;;;24.28;40.68945;942.7455;;;;
2022/10/04 12:15:34;;;;;;;1.3;0.9;;;;;;;25.02;38.18555;942.7512;;;;
2022/10/04 12:17:57;;;;;;;1;0.8;;;;;;;24.83;40.23145;942.7225;;;;
2022/10/04 12:20:27;;;;;;;1;0.9;;;;;;;24.86;40.69531;942.662;;;;
2022/10/04 12:22:48;;;;;;;0.8;0.8;;;;;;;24.9;39.11816;942.6117;;;;
2022/10/04 12:25:19;;;;;;;3.5;1.4;;;;;;;24.39;39.74512;942.6205;;;;
2022/10/04 12:28:20;;;;;;;1;0.7;;;;;;;24.92;41.03125;942.628;;;;
2022/10/04 12:30:46;;;;;;;2.3;0.8;;;;;;;25.68;40.03809;942.5717;;;;
2022/10/04 12:33:11;;;;;;;0.9;0.8;;;;;;;25.79;40.56738;942.5173;;;;
2022/10/04 12:35:36;;;;;;;0.9;0.8;;;;;;;26.38;38.82129;942.5564;;;;
2022/10/04 12:38:02;;;;;;;0.7;0.7;;;;;;;27.87;36.13672;942.5369;;;;
2022/10/04 12:40:29;;;;;;;3.4;1;;;;;;;28.98;34.33301;942.5672;;;;
2022/10/04 12:42:54;;;;;;;0.7;0.7;;;;;;;29.87;32.8252;942.5098;;;;
2022/10/04 12:45:21;;;;;;;1.9;0.7;;;;;;;28.1;35.71484;942.5221;;;;
2022/10/04 12:47:48;;;;;;;1.9;1;;;;;;;28.82;35.10547;942.5117;;;;
2022/10/04 12:50:16;;;;;;;1.9;0.9;;;;;;;29.22;33.6123;942.5167;;;;
2022/10/04 12:52:45;;;;;;;1.3;0.7;;;;;;;27.55;36.38281;942.4891;;;;
2022/10/04 12:55:36;;;;;;;1.4;0.6;;;;;;;27.31;37.20605;942.4554;;;;
2022/10/04 12:58:01;;;;;;;0.7;0.7;;;;;;;27.39;37.16504;942.4246;;;;
2022/10/04 13:00:27;;;;;;;1.6;1.1;;;;;;;28.15;35.55273;942.4442;;;;
2022/10/04 13:06:04;;;;;;;1.8;1;;;;;;;26.37;39.61426;942.4211;;;;
2022/10/04 13:08:29;;;;;;;2.3;0.8;;;;;;;28.06;34.47656;942.3546;;;;
2022/10/04 13:10:56;;;;;;;0.9;0.9;;;;;;;27.95;35.27539;942.3697;;;;
2022/10/04 13:13:21;;;;;;;0.8;0.8;;;;;;;26.97;36.05176;942.4238;;;;
2022/10/04 13:15:57;;;;;;;2.4;0.9;;;;;;;26.49;37.18555;942.3677;;;;
2022/10/04 13:18:20;;;;;;;1.9;0.9;;;;;;;27.27;36.36035;942.3814;;;;
2022/10/04 13:20:45;;;;;;;0.8;0.8;;;;;;;27.89;36.38672;942.3817;;;;
2022/10/04 13:23:10;;;;;;;2.5;0.8;;;;;;;29.75;32.03027;942.4337;;;;
2022/10/04 13:25:35;;;;;;;1.2;0.7;;;;;;;29.96;31.60352;942.4111;;;;
2022/10/04 13:28:01;;;;;;;0.7;0.7;;;;;;;30.38;31.01172;942.4312;;;;
2022/10/04 13:30:28;;;;;;;1.7;0.6;;;;;;;30.8;30.06055;942.389;;;;
2022/10/04 13:32:55;;;;;;;0.9;0.6;;;;;;;31.18;29.33301;942.4308;;;;
2022/10/04 13:35:22;;;;;;;0.7;0.7;;;;;;;29.07;33.125;942.4227;;;;
2022/10/04 13:37:46;;;;;;;0.8;0.8;;;;;;;28.57;32.77832;942.3973;;;;
2022/10/04 13:40:20;;;;;;;1.8;1;;;;;;;29.04;33.22949;942.3964;;;;
2022/10/04 13:42:49;;;;;;;1.2;0.7;;;;;;;29.88;31.03809;942.4034;;;;
2022/10/04 13:48:54;;;;;;;0.7;0.7;;;;;;;30.67;30.92383;942.3645;;;;
2022/10/04 13:51:34;;;;;;;1.4;1.2;;;;;;;30.99;29.77441;942.384;;;;
2022/10/04 13:57:24;;;;;;;1;0.9;;;;;;;29.75;32.32813;942.4914;;;;
2022/10/04 13:59:53;;;;;;;2;1;;;;;;;28.1;33.96875;942.4727;;;;
2022/10/04 14:02:21;;;;;;;1;0.9;;;;;;;29.34;33.09668;942.4986;;;;
2022/10/04 14:04:46;;;;;;;1.3;0.8;;;;;;;29.1;32.41211;942.5325;;;;
2022/10/04 14:07:13;;;;;;;0.7;0.7;;;;;;;29.15;32.9043;942.5195;;;;
2022/10/04 14:09:38;;;;;;;2.4;0.8;;;;;;;29.1;33.22266;942.5118;;;;
2022/10/04 14:12:05;;;;;;;1.6;0.8;;;;;;;28.71;33.35938;942.4482;;;;
2022/10/04 14:14:46;;;;;;;1.3;0.8;;;;;;;29;33.16699;942.5112;;;;
2022/10/04 14:17:22;;;;;;;0.9;0.9;;;;;;;29.38;32.75488;942.519;;;;
2022/10/04 14:19:43;;;;;;;1;0.9;;;;;;;29.24;33.19727;942.555;;;;
2022/10/04 14:22:08;;;;;;;0.8;0.8;;;;;;;29.38;33.00488;942.5725;;;;
2022/10/04 14:24:35;;;;;;;0.9;0.9;;;;;;;28.15;34.51855;942.603;;;;
2022/10/04 14:27:00;;;;;;;0.8;0.8;;;;;;;28.14;34.85059;942.6442;;;;
2022/10/04 14:29:27;;;;;;;1;0.9;;;;;;;27.85;35.24414;942.6277;;;;
2022/10/04 14:31:52;;;;;;;2.3;0.9;;;;;;;27.18;36.5791;942.5613;;;;
2022/10/04 14:34:19;;;;;;;1.5;0.9;;;;;;;26.9;37.2793;942.6819;;;;
2022/10/04 14:36:47;;;;;;;0.8;0.8;;;;;;;27.49;36.54395;942.6795;;;;
2022/10/04 14:39:12;;;;;;;0.7;0.7;;;;;;;26.93;37.10352;942.6772;;;;
2022/10/04 14:41:37;;;;;;;1.2;1;;;;;;;27.18;36.76855;942.5875;;;;
2022/10/04 14:44:03;;;;;;;1.6;1;;;;;;;26.79;37.30469;942.7162;;;;
2022/10/04 14:46:28;;;;;;;1;0.9;;;;;;;26.2;38.83008;942.7676;;;;
2022/10/04 14:48:57;;;;;;;0.9;0.8;;;;;;;26.01;39.02734;942.7227;;;;
2022/10/04 14:51:25;;;;;;;2.5;1.4;;;;;;;25.45;40.09961;942.6859;;;;
2022/10/04 14:53:50;;;;;;;1.5;1.1;;;;;;;25.46;39.99414;942.7214;;;;
2022/10/04 14:56:19;;;;;;;1.1;0.9;;;;;;;24.56;41.89355;942.7325;;;;
2022/10/04 15:02:31;;;;;;;0.8;0.8;;;;;;;24.04;42.12695;942.7417;;;;
2022/10/04 15:04:57;;;;;;;0.9;0.8;;;;;;;23.3;43.97266;942.7117;;;;
2022/10/04 15:07:24;;;;;;;1.3;0.9;;;;;;;22.56;46.27051;942.7836;;;;
2022/10/04 15:09:53;;;;;;;2.4;1.2;;;;;;;22.16;47.19141;942.8706;;;;
2022/10/04 15:12:19;;;;;;;1.1;0.8;;;;;;;21.53;48.88184;942.9236;;;;
2022/10/04 15:14:45;;;;;;;1.3;1;;;;;;;20.77;50.91113;942.9453;;;;
2022/10/04 15:17:15;;;;;;;1;1;;;;;;;20.45;52.34766;942.9105;;;;
2022/10/04 15:19:40;;;;;;;1;0.9;;;;;;;20.27;52.79199;942.9308;;;;
2022/10/04 15:22:05;;;;;;;1.6;1.3;;;;;;;20.23;53.36035;942.9542;;;;
2022/10/04 15:24:31;;;;;;;1.2;1.1;;;;;;;19.92;54.42969;942.984;;;;
2022/10/04 15:26:56;;;;;;;1.8;1.2;;;;;;;19.74;54.49023;942.8851;;;;
2022/10/04 15:29:22;;;;;;;2.6;1.1;;;;;;;19.34;55.86328;943.0383;;;;
2022/10/04 15:31:47;;;;;;;1.3;1.2;;;;;;;19.28;56.46094;943.0546;;;;
2022/10/04 15:34:11;;;;;;;1.3;0.8;;;;;;;19.25;56.31641;942.9816;;;;
2022/10/04 15:36:38;;;;;;;2.2;1.9;;;;;;;19.08;56.7832;943.048;;;;
2022/10/04 15:39:05;;;;;;;1.6;1.5;;;;;;;18.72;58.22656;943.0809;;;;
2022/10/04 15:41:30;;;;;;;2.2;1.2;;;;;;;18.49;59.30176;943.0689;;;;
2022/10/04 15:43:55;;;;;;;2.2;1.4;;;;;;;18.13;60.14648;943.1294;;;;
2022/10/04 15:46:21;;;;;;;1.4;1.3;;;;;;;17.98;61.00781;943.1219;;;;
2022/10/04 15:48:46;;;;;;;2;1.4;;;;;;;17.77;61.49121;943.0836;;;;
2022/10/04 15:51:12;;;;;;;1.6;1.5;;;;;;;17.74;61.5791;943.08;;;;
2022/10/04 15:53:37;;;;;;;1.9;1.6;;;;;;;17.49;62.32227;943.1083;;;;
2022/10/04 15:56:02;;;;;;;1.6;1.5;;;;;;;17.37;63.33594;943.1294;;;;
2022/10/04 15:58:27;;;;;;;3.8;1.4;;;;;;;17.35;64.81836;943.1125;;;;
2022/10/04 16:00:52;;;;;;;4.9;3;;;;;;;17.31;64.77734;943.1258;;;;
2022/10/04 16:03:19;;;;;;;5.3;3.3;;;;;;;17.16;65.22949;943.1476;;;;
2022/10/04 16:05:55;;;;;;;4.2;2.9;;;;;;;17.07;65.31055;943.1556;;;;
2022/10/04 16:08:21;;;;;;;6.8;5;;;;;;;16.97;66.60352;943.1827;;;;
2022/10/04 16:10:51;;;;;;;6.1;5;;;;;;;16.81;67.66895;943.2463;;;;
2022/10/04 16:13:14;;;;;;;10.1;8.6;;;;;;;16.69;67.7666;943.1666;;;;
2022/10/04 16:15:49;;;;;;;8.9;6.1;;;;;;;16.51;68.86328;943.1316;;;;
2022/10/04 16:18:15;;;;;;;9.5;6.5;;;;;;;16.37;69.2207;943.1128;;;;
2022/10/04 16:20:41;;;;;;;7.9;6.3;;;;;;;16.25;69.89648;943.1591;;;;
2022/10/04 16:26:39;;;;;;;3.5;2.5;;;;;;;15.59;72.41406;943.1658;;;;